Chemstar Masa — 3FGM7 — position and weather

sailwx.info

Track history (hours):
 
Tides and Currents Weather Stations Pressure Air Temp Water Temp Dewpoint Dewpoint Depression Visibility Wind Speed Wind Dir Waves Ship Positions

Chemstar Masa

Last reported at 2015-May-19 02:33 UTC. Time now 2015-May-29 16:14 UTC.
Position N 29°24' W 094°49'.
Warning: this ship's position is 10 days out of date.

Length 141 m; draft 8.6 m.

Type: Tanker. MMSI: 353456000.

Date/timePositionNaut miles runAvg speedWind from/ knotsBaromVisibWave heightAir tempDewpointWater temp
2015-May-19 02:33N 29°24' W 094°49'1313.5
2015-May-19 01:33N 29°36' W 094°57'1010.2
2015-May-19 00:33N 29°44' W 095°04'4 1.2
2015-May-18 21:24N 29°44' W 095°08'0 0.0
2015-May-18 20:33N 29°44' W 095°08'0 0.0
2015-May-18 16:33N 29°44' W 095°08'0 0.0
2015-May-18 15:24N 29°44' W 095°08'0 0.0
2015-May-18 12:33N 29°44' W 095°08'0 0.0
2015-May-18 10:12N 29°44' W 095°08'0 0.0
2015-May-18 09:18N 29°44' W 095°08'0 0.0
2015-May-18 08:12N 29°44' W 095°08'0 0.0
2015-May-18 07:18N 29°44' W 095°08'0 0.0
2015-May-18 06:18N 29°44' W 095°08'0 0.0
2015-May-18 05:21N 29°44' W 095°08'0 0.0
2015-May-18 04:24N 29°44' W 095°08'0 0.0
2015-May-18 03:30N 29°44' W 095°08'0 0.0
2015-May-18 02:30N 29°44' W 095°08'0 0.0
2015-May-18 01:30N 29°44' W 095°08'0 0.0
2015-May-18 00:30N 29°44' W 095°08'0 0.0
2015-May-17 23:33N 29°44' W 095°08'0 0.0
2015-May-17 22:18N 29°44' W 095°08'0 0.0
2015-May-17 21:30N 29°44' W 095°08'0 0.0
2015-May-17 20:27N 29°44' W 095°08'0 0.0
2015-May-16 06:33N 29°44' W 095°07'6 5.5
2015-May-16 05:33N 29°43' W 095°01'1211.9
2015-May-16 04:33N 29°33' W 094°54'1313.1
2015-May-16 03:33N 29°21' W 094°47'5 0.2
2015-May-15 02:33N 29°25' W 094°50'1212.2
2015-May-15 01:33N 29°36' W 094°57'9 9.5
2015-May-15 00:33N 29°44' W 095°02'3 0.1
2015-May-13 00:32N 29°45' W 095°06'3 3.1
2015-May-12 23:34N 29°44' W 095°02'9 9.3
2015-May-12 22:34N 29°36' W 094°57'1111.5
2015-May-12 21:33N 29°26' W 094°50'  
Track history (hours):
 
Tides and Currents Weather Stations Pressure Air Temp Water Temp Dewpoint Dewpoint Depression Visibility Wind Speed Wind Dir Waves Ship Positions

Chemstar Masa

Last reported at 2015-May-19 02:33 UTC. Time now 2015-May-29 16:14 UTC.
Position N 29°24' W 094°49'.
Warning: this ship's position is 10 days out of date.

Length 141 m; draft 8.6 m.

Type: Tanker. MMSI: 353456000.

Date/timePositionNaut miles runAvg speedWind from/ knotsBaromVisibWave heightAir tempDewpointWater temp
2015-May-19 02:33N 29°24' W 094°49'1313.5
2015-May-19 01:33N 29°36' W 094°57'1010.2
2015-May-19 00:33N 29°44' W 095°04'4 1.2
2015-May-18 21:24N 29°44' W 095°08'0 0.0
2015-May-18 20:33N 29°44' W 095°08'0 0.0
2015-May-18 16:33N 29°44' W 095°08'0 0.0
2015-May-18 15:24N 29°44' W 095°08'0 0.0
2015-May-18 12:33N 29°44' W 095°08'0 0.0
2015-May-18 10:12N 29°44' W 095°08'0 0.0
2015-May-18 09:18N 29°44' W 095°08'0 0.0
2015-May-18 08:12N 29°44' W 095°08'0 0.0
2015-May-18 07:18N 29°44' W 095°08'0 0.0
2015-May-18 06:18N 29°44' W 095°08'0 0.0
2015-May-18 05:21N 29°44' W 095°08'0 0.0
2015-May-18 04:24N 29°44' W 095°08'0 0.0
2015-May-18 03:30N 29°44' W 095°08'0 0.0
2015-May-18 02:30N 29°44' W 095°08'0 0.0
2015-May-18 01:30N 29°44' W 095°08'0 0.0
2015-May-18 00:30N 29°44' W 095°08'0 0.0
2015-May-17 23:33N 29°44' W 095°08'0 0.0
2015-May-17 22:18N 29°44' W 095°08'0 0.0
2015-May-17 21:30N 29°44' W 095°08'0 0.0
2015-May-17 20:27N 29°44' W 095°08'0 0.0
2015-May-16 06:33N 29°44' W 095°07'6 5.5
2015-May-16 05:33N 29°43' W 095°01'1211.9
2015-May-16 04:33N 29°33' W 094°54'1313.1
2015-May-16 03:33N 29°21' W 094°47'5 0.2
2015-May-15 02:33N 29°25' W 094°50'1212.2
2015-May-15 01:33N 29°36' W 094°57'9 9.5
2015-May-15 00:33N 29°44' W 095°02'3 0.1
2015-May-13 00:32N 29°45' W 095°06'3 3.1
2015-May-12 23:34N 29°44' W 095°02'9 9.3
2015-May-12 22:34N 29°36' W 094°57'1111.5
2015-May-12 21:33N 29°26' W 094°50'  

Dump ship's entire track history